GCXO/TFN METAR and TAF weather

Enter ICAO airport designator
Station Type Date Time Source
GCXO METAR 2022/01/29 02:00 UTC NOAA

GCXO 290200Z AUTO 28005KT 240V330 9000 SCT037 12/09 Q1019


Station Type Date Time Source
GCXO Decoded METAR 2022/01/29 02:00 UTC NOAA

Tenerife / Los Rodeos, Spain (GCXO) 28-28N 016-19W 617M
Jan 28, 2022 - 09:00 PM EST / 2022.01.29 0200 UTC
Wind: from the W (280 degrees) at 6 MPH (5 KT) (direction variable):0
Visibility: 5 mile(s):0
Sky conditions: partly cloudy
Temperature: 53 F (12 C)
Dew Point: 48 F (9 C)
Relative Humidity: 81%
Pressure (altimeter): 30.09 in. Hg (1019 hPa)
ob: GCXO 290200Z AUTO 28005KT 240V330 9000 SCT037 12/09 Q1019
cycle: 2

Station Type Date Time Source
GCXO TAF 2022/01/28 21:28 UTC NOAA

TAF GCXO 282000Z 2821/2921 VRB05KT 9999 FEW015 TX16/2914Z TN09/2906Z
BECMG 2910/2912 33011KT PROB30
TEMPO 2823/2909 4500 BCFG

Example: see airport list